Time;durP1;ratioP1;P1;durP2;ratioP2;P2;SDS_P1;SDS_P2;PMS_P1;PMS_P2;Temp;Humidity;BMP_temperature;BMP_pressure;BME280_temperature;BME280_humidity;BME280_pressure;Samples;Min_cycle;Max_cycle;Signal;HPM_P1;HPM_P2
2022/07/04 00:00:16;;;;;;;12.93;9.15;;;15.50;99.90;;;;;;5031779;28;20041;-84
2022/07/04 00:02:43;;;;;;;13.35;8.50;;;15.50;99.90;;;;;;5013979;28;20140;-84
2022/07/04 00:05:10;;;;;;;10.45;8.50;;;15.50;99.90;;;;;;5014511;28;20041;-84
2022/07/04 00:07:44;;;;;;;12.73;8.98;;;15.50;99.90;;;;;;4997846;28;20091;-84
2022/07/04 00:10:12;;;;;;;9.27;5.00;;;15.50;99.90;;;;;;5030286;28;20033;-84
2022/07/04 00:12:38;;;;;;;9.57;7.93;;;15.40;99.90;;;;;;5013367;28;20406;-84
2022/07/04 00:15:06;;;;;;;10.85;7.80;;;15.30;99.90;;;;;;5014079;28;20142;-84
2022/07/04 00:17:32;;;;;;;10.07;7.32;;;15.30;99.90;;;;;;4998216;28;20041;-84
2022/07/04 00:19:58;;;;;;;11.70;5.63;;;15.30;99.90;;;;;;5014146;28;20056;-84
2022/07/04 00:22:23;;;;;;;9.77;7.35;;;15.20;99.90;;;;;;4998357;28;20041;-84
2022/07/04 00:24:49;;;;;;;19.17;9.65;;;15.10;99.90;;;;;;5013888;28;20688;-84
2022/07/04 00:27:15;;;;;;;8.98;5.18;;;15.10;99.90;;;;;;5014272;28;20033;-84
2022/07/04 00:29:40;;;;;;;9.57;7.15;;;15.00;99.90;;;;;;5037547;28;20114;-84
2022/07/04 00:32:06;;;;;;;11.27;8.05;;;15.00;99.90;;;;;;5013610;28;20099;-84
2022/07/04 00:34:32;;;;;;;29.80;10.27;;;15.00;99.90;;;;;;5013495;28;20040;-84
2022/07/04 00:36:58;;;;;;;13.02;5.22;;;15.00;99.90;;;;;;4997310;28;20033;-83
2022/07/04 00:39:23;;;;;;;14.63;7.18;;;14.90;99.90;;;;;;4997701;28;20413;-83
2022/07/04 00:41:49;;;;;;;11.00;6.38;;;14.80;99.90;;;;;;5013500;28;20038;-84
2022/07/04 00:44:17;;;;;;;8.73;4.82;;;14.80;99.90;;;;;;5014140;28;20128;-84
2022/07/04 00:46:44;;;;;;;9.43;6.80;;;14.70;99.90;;;;;;5013433;28;20051;-84
2022/07/04 00:49:11;;;;;;;10.55;9.25;;;14.70;99.90;;;;;;5012659;28;20037;-84
2022/07/04 00:51:38;;;;;;;9.38;5.47;;;14.70;99.90;;;;;;5013447;28;20044;-84
2022/07/04 00:54:05;;;;;;;22.05;6.88;;;14.60;99.90;;;;;;5012603;28;20037;-84
2022/07/04 00:56:31;;;;;;;57.63;8.15;;;14.60;99.90;;;;;;4997539;28;20251;-84
2022/07/04 00:58:58;;;;;;;16.42;6.40;;;14.60;99.90;;;;;;4996801;28;20037;-83
2022/07/04 01:01:24;;;;;;;19.10;4.45;;;14.50;99.90;;;;;;5013853;28;20041;-84
2022/07/04 01:03:50;;;;;;;21.33;3.85;;;14.40;99.90;;;;;;5013832;28;20034;-84
2022/07/04 01:06:18;;;;;;;79.43;7.50;;;14.30;99.90;;;;;;5013316;28;20045;-84
2022/07/04 01:08:44;;;;;;;154.85;12.07;;;14.30;99.90;;;;;;5013068;28;20042;-84
2022/07/04 01:11:10;;;;;;;61.42;5.38;;;14.30;99.90;;;;;;4995562;28;20576;-84
2022/07/04 01:13:36;;;;;;;56.30;6.28;;;14.20;99.90;;;;;;5012929;28;20111;-84
2022/07/04 01:16:03;;;;;;;90.47;7.93;;;14.10;99.90;;;;;;5013420;28;20379;-84
2022/07/04 01:18:29;;;;;;;12.38;3.20;;;14.10;99.90;;;;;;5012668;28;20037;-83
2022/07/04 01:20:55;;;;;;;12.57;5.35;;;14.00;99.90;;;;;;4996981;28;20407;-84
2022/07/04 01:23:20;;;;;;;35.28;7.95;;;13.90;99.90;;;;;;5001944;28;20072;-84
2022/07/04 01:25:48;;;;;;;24.75;5.63;;;14.00;99.90;;;;;;5033428;28;20049;-83
2022/07/04 01:28:14;;;;;;;63.08;10.30;;;13.90;99.90;;;;;;5012839;28;20041;-83
2022/07/04 01:30:40;;;;;;;46.72;9.65;;;13.90;99.90;;;;;;5011744;28;20030;-83
2022/07/04 01:33:05;;;;;;;21.48;8.02;;;13.90;99.90;;;;;;4996391;28;20474;-84
2022/07/04 01:35:31;;;;;;;11.48;6.45;;;13.90;99.90;;;;;;4996359;28;20041;-83
2022/07/04 01:37:57;;;;;;;11.68;5.50;;;13.90;99.90;;;;;;5013104;28;20525;-84
2022/07/04 01:40:23;;;;;;;12.07;9.55;;;13.80;99.90;;;;;;5013280;28;20503;-83
2022/07/04 01:42:48;;;;;;;12.15;10.85;;;13.80;99.90;;;;;;5029139;28;20048;-83
2022/07/04 01:45:14;;;;;;;11.70;7.00;;;13.90;99.90;;;;;;5013766;28;20099;-83
2022/07/04 01:47:40;;;;;;;16.23;10.20;;;13.90;99.90;;;;;;5012637;28;20060;-84
2022/07/04 01:50:08;;;;;;;42.88;14.43;;;13.90;99.90;;;;;;4995484;28;20048;-83
2022/07/04 01:52:35;;;;;;;13.30;8.60;;;13.90;99.90;;;;;;4996303;28;20533;-83
2022/07/04 01:55:01;;;;;;;12.38;6.68;;;13.90;99.90;;;;;;4995498;28;20044;-83
2022/07/04 01:57:26;;;;;;;14.57;11.07;;;13.80;99.90;;;;;;5029607;28;20041;-84
2022/07/04 02:02:37;;;;;;;10.88;6.55;;;13.80;99.90;;;;;;5013001;28;20049;-84
2022/07/04 02:05:03;;;;;;;11.30;9.02;;;13.80;99.90;;;;;;5013120;28;20057;-84
2022/07/04 02:07:29;;;;;;;12.02;9.50;;;13.80;99.90;;;;;;4995665;28;20038;-84
2022/07/04 02:09:55;;;;;;;11.52;6.45;;;13.90;99.90;;;;;;5012339;28;20045;-83
2022/07/04 02:15:06;;;;;;;11.80;10.52;;;13.80;99.90;;;;;;5012326;28;20041;-84
2022/07/04 02:17:31;;;;;;;12.05;8.02;;;13.80;99.90;;;;;;5012362;28;20252;-83
2022/07/04 02:19:57;;;;;;;15.68;13.52;;;13.80;99.90;;;;;;5028918;28;20434;-83
2022/07/04 02:22:22;;;;;;;13.80;11.90;;;13.80;99.90;;;;;;5013113;28;20033;-84
2022/07/04 02:24:48;;;;;;;16.05;8.52;;;13.90;99.90;;;;;;5013613;28;20033;-84
2022/07/04 02:27:14;;;;;;;18.17;13.15;;;13.90;99.90;;;;;;5016081;28;20521;-84
2022/07/04 02:29:40;;;;;;;13.25;11.77;;;13.90;99.90;;;;;;5015696;28;20454;-84
2022/07/04 02:32:06;;;;;;;13.10;8.88;;;14.00;99.90;;;;;;4999430;28;20116;-84
2022/07/04 02:34:31;;;;;;;12.73;11.43;;;13.90;99.90;;;;;;4998703;28;20148;-84
2022/07/04 02:36:57;;;;;;;13.63;8.20;;;14.00;99.90;;;;;;5032424;28;20092;-84
2022/07/04 02:39:24;;;;;;;14.10;12.45;;;13.90;99.90;;;;;;4999897;28;20438;-83
2022/07/04 02:41:49;;;;;;;11.32;8.20;;;13.90;99.90;;;;;;5016145;28;20060;-83
2022/07/04 02:44:15;;;;;;;13.63;12.05;;;13.80;99.90;;;;;;4999717;28;20037;-84
2022/07/04 02:46:41;;;;;;;13.20;11.73;;;13.80;99.90;;;;;;4999876;28;20045;-84
2022/07/04 02:49:06;;;;;;;13.35;11.98;;;13.90;99.90;;;;;;5015128;28;20041;-83
2022/07/04 02:51:32;;;;;;;12.20;8.07;;;13.90;99.90;;;;;;5015720;28;20044;-84
2022/07/04 02:53:58;;;;;;;13.57;11.73;;;13.90;99.90;;;;;;5015304;28;20083;-84
2022/07/04 02:56:23;;;;;;;14.52;12.48;;;13.90;99.90;;;;;;5015547;28;20037;-84
2022/07/04 02:58:49;;;;;;;11.73;7.63;;;13.90;99.90;;;;;;5015831;28;20518;-83
2022/07/04 03:01:15;;;;;;;13.32;11.65;;;13.80;99.90;;;;;;4999215;28;20049;-84
2022/07/04 03:03:41;;;;;;;14.23;8.30;;;13.80;99.90;;;;;;4999285;28;20194;-84
2022/07/04 03:06:08;;;;;;;12.73;8.07;;;13.80;99.90;;;;;;4999821;28;20049;-84
2022/07/04 03:08:34;;;;;;;13.27;11.82;;;13.80;99.90;;;;;;5014930;28;20072;-84
2022/07/04 03:10:59;;;;;;;12.18;7.80;;;13.80;99.90;;;;;;4998350;28;20073;-84
2022/07/04 03:13:25;;;;;;;14.40;11.25;;;13.80;99.90;;;;;;4998716;28;20037;-84
2022/07/04 03:15:51;;;;;;;13.55;10.95;;;13.80;99.90;;;;;;4998419;28;20468;-83
2022/07/04 03:18:16;;;;;;;14.70;7.95;;;13.80;99.90;;;;;;5031845;28;20041;-84
2022/07/04 03:20:43;;;;;;;12.48;10.88;;;13.70;99.90;;;;;;4999071;28;20041;-84
2022/07/04 03:23:08;;;;;;;11.68;7.85;;;13.70;99.90;;;;;;5015244;28;20562;-83
2022/07/04 03:25:34;;;;;;;13.98;8.95;;;13.70;99.90;;;;;;4999331;28;20045;-84
2022/07/04 03:28:00;;;;;;;13.70;12.13;;;13.70;99.90;;;;;;5014770;28;20092;-84
2022/07/04 03:30:25;;;;;;;14.93;12.23;;;13.70;99.90;;;;;;5014446;28;20045;-84
2022/07/04 03:32:51;;;;;;;12.68;11.35;;;13.70;99.90;;;;;;4998076;28;20498;-83
2022/07/04 03:35:17;;;;;;;14.73;13.15;;;13.80;99.90;;;;;;5015055;28;20038;-83
2022/07/04 03:37:42;;;;;;;12.35;8.18;;;13.80;99.90;;;;;;5015199;28;20136;-84
2022/07/04 03:40:09;;;;;;;12.45;8.10;;;13.70;99.90;;;;;;5014795;28;20526;-84
2022/07/04 03:42:34;;;;;;;15.00;12.88;;;13.70;99.90;;;;;;5014776;28;20511;-84
2022/07/04 03:45:00;;;;;;;13.45;9.05;;;13.70;99.90;;;;;;5014121;28;20049;-84
2022/07/04 03:47:26;;;;;;;15.77;13.52;;;13.70;99.90;;;;;;5031942;28;20037;-84
2022/07/04 03:49:51;;;;;;;14.40;9.02;;;13.70;99.90;;;;;;5014527;28;20045;-83
2022/07/04 03:52:17;;;;;;;16.35;14.65;;;13.60;99.90;;;;;;5031158;28;20479;-84
2022/07/04 03:54:42;;;;;;;15.98;13.70;;;13.70;99.90;;;;;;5030025;28;20521;-84
2022/07/04 03:57:08;;;;;;;14.05;9.05;;;13.70;99.90;;;;;;5014656;28;20427;-83
2022/07/04 03:59:33;;;;;;;13.90;9.60;;;13.70;99.90;;;;;;5014356;28;20042;-84
2022/07/04 04:01:59;;;;;;;14.25;12.07;;;13.70;99.90;;;;;;5015112;28;20104;-84
2022/07/04 04:07:08;;;;;;;13.15;7.82;;;13.80;99.90;;;;;;5014408;28;20049;-83
2022/07/04 04:09:34;;;;;;;13.23;8.05;;;13.70;99.90;;;;;;5014239;28;20531;-83
2022/07/04 04:12:00;;;;;;;13.45;10.90;;;13.70;99.90;;;;;;5013215;28;20037;-83
2022/07/04 04:14:27;;;;;;;14.30;11.88;;;13.80;99.90;;;;;;5014215;28;20045;-83
2022/07/04 04:16:53;;;;;;;15.75;8.57;;;13.80;99.90;;;;;;5032383;28;20414;-83
2022/07/04 04:19:19;;;;;;;11.95;7.63;;;13.80;99.90;;;;;;5013660;28;20491;-83
2022/07/04 04:21:45;;;;;;;15.68;11.10;;;13.80;99.90;;;;;;5014762;28;20045;-83
2022/07/04 04:24:10;;;;;;;12.00;10.73;;;13.80;99.90;;;;;;5014558;28;20060;-83
2022/07/04 04:26:36;;;;;;;12.27;8.38;;;13.80;99.90;;;;;;5013947;28;20073;-83
2022/07/04 04:29:02;;;;;;;12.80;8.88;;;13.80;99.90;;;;;;5013962;28;20044;-83
2022/07/04 04:31:28;;;;;;;15.35;11.77;;;13.80;99.90;;;;;;5012900;28;20037;-84
2022/07/04 04:33:53;;;;;;;13.70;12.30;;;13.80;99.90;;;;;;4997393;28;20078;-83
2022/07/04 04:36:19;;;;;;;13.77;12.38;;;13.90;99.90;;;;;;4997028;28;20044;-83
2022/07/04 04:38:45;;;;;;;13.70;9.13;;;14.00;99.90;;;;;;5013411;28;20172;-83
2022/07/04 04:41:10;;;;;;;15.23;13.10;;;14.00;99.90;;;;;;5013610;28;20083;-83
2022/07/04 04:43:37;;;;;;;14.20;12.05;;;14.00;99.90;;;;;;5014108;28;20049;-83
2022/07/04 04:46:02;;;;;;;13.00;9.38;;;14.10;99.90;;;;;;4997996;28;20518;-83
2022/07/04 04:48:28;;;;;;;12.95;8.70;;;14.10;99.90;;;;;;5012353;28;20055;-83
2022/07/04 04:50:53;;;;;;;14.50;12.05;;;14.10;99.90;;;;;;5013463;28;20042;-83
2022/07/04 04:53:22;;;;;;;15.85;12.45;;;14.10;99.90;;;;;;5013301;28;20045;-83
2022/07/04 04:55:48;;;;;;;13.18;9.55;;;14.20;99.90;;;;;;5028920;28;20041;-83
2022/07/04 04:58:13;;;;;;;13.50;11.80;;;14.20;99.90;;;;;;5013663;28;20132;-83
2022/07/04 05:00:39;;;;;;;13.27;11.77;;;14.30;99.90;;;;;;4997417;28;20111;-84
2022/07/04 05:03:04;;;;;;;15.25;12.02;;;14.40;99.90;;;;;;5013231;28;20116;-83
2022/07/04 05:05:30;;;;;;;14.85;12.38;;;14.40;99.90;;;;;;5014003;28;20125;-84
2022/07/04 05:07:55;;;;;;;12.55;9.45;;;14.50;99.90;;;;;;5013504;28;20639;-83
2022/07/04 05:10:21;;;;;;;12.90;11.27;;;14.50;99.90;;;;;;5012269;28;20593;-83
2022/07/04 05:12:47;;;;;;;13.15;8.75;;;14.50;99.90;;;;;;4996059;28;20033;-83
2022/07/04 05:15:12;;;;;;;15.50;11.27;;;14.60;99.90;;;;;;5012902;28;20033;-84
2022/07/04 05:17:38;;;;;;;13.23;11.40;;;14.60;99.90;;;;;;5013557;28;20045;-83
2022/07/04 05:20:04;;;;;;;15.70;11.05;;;14.70;99.90;;;;;;5012534;28;20034;-83
2022/07/04 05:22:30;;;;;;;14.98;8.02;;;14.70;99.90;;;;;;5013899;28;20118;-83
2022/07/04 05:24:55;;;;;;;14.43;8.98;;;14.70;99.90;;;;;;4996142;28;20429;-83
2022/07/04 05:27:21;;;;;;;14.40;12.00;;;14.70;99.90;;;;;;5013683;28;20064;-83
2022/07/04 05:29:46;;;;;;;15.88;9.95;;;14.80;99.90;;;;;;5012684;28;20036;-83
2022/07/04 05:32:12;;;;;;;14.52;12.30;;;14.80;99.90;;;;;;5012350;28;20128;-83
2022/07/04 05:34:38;;;;;;;14.85;10.55;;;14.90;99.90;;;;;;5012523;28;20080;-83
2022/07/04 05:37:04;;;;;;;16.10;12.40;;;14.90;99.90;;;;;;5012630;28;20081;-83
2022/07/04 05:39:29;;;;;;;14.30;12.80;;;15.00;99.90;;;;;;5012583;28;20084;-83
2022/07/04 05:41:55;;;;;;;17.05;12.65;;;15.10;99.90;;;;;;5013509;28;20084;-84
2022/07/04 05:44:20;;;;;;;16.77;13.07;;;15.10;99.90;;;;;;5010070;28;20597;-84
2022/07/04 05:46:46;;;;;;;16.23;12.60;;;15.20;99.90;;;;;;5010163;28;20511;-84
2022/07/04 05:49:12;;;;;;;16.80;10.23;;;15.20;99.90;;;;;;5028370;28;20045;-84
2022/07/04 05:51:37;;;;;;;13.98;12.30;;;15.30;99.90;;;;;;4996148;28;20037;-84
2022/07/04 05:54:03;;;;;;;13.38;10.38;;;15.30;99.90;;;;;;4995556;28;20072;-84
2022/07/04 05:56:28;;;;;;;16.95;12.10;;;15.40;99.90;;;;;;5012240;28;20037;-84
2022/07/04 05:58:54;;;;;;;13.55;9.90;;;15.50;99.90;;;;;;4997354;28;20128;-84
2022/07/04 06:01:20;;;;;;;14.98;12.50;;;15.50;99.90;;;;;;5000230;28;20037;-84
2022/07/04 06:03:45;;;;;;;14.35;10.43;;;15.60;99.90;;;;;;5000272;28;20156;-84
2022/07/04 06:06:11;;;;;;;14.57;8.05;;;15.80;99.90;;;;;;4997339;28;20036;-80
2022/07/04 06:08:37;;;;;;;11.77;9.63;;;15.80;99.90;;;;;;5014438;28;20490;-84
2022/07/04 06:11:03;;;;;;;14.05;9.23;;;15.90;99.90;;;;;;5016614;28;20434;-84
2022/07/04 06:13:29;;;;;;;13.48;8.50;;;15.90;99.90;;;;;;5014883;28;20499;-84
2022/07/04 06:15:55;;;;;;;13.85;8.68;;;15.90;99.90;;;;;;5031537;28;20048;-84
2022/07/04 06:18:20;;;;;;;13.50;10.38;;;15.90;99.90;;;;;;5016855;28;20095;-84
2022/07/04 06:20:46;;;;;;;14.20;9.25;;;16.00;99.90;;;;;;5015768;28;20540;-84
2022/07/04 06:23:11;;;;;;;12.52;9.63;;;16.00;99.90;;;;;;5000190;28;20064;-84
2022/07/04 06:25:37;;;;;;;14.90;9.95;;;16.00;99.90;;;;;;5016433;28;20048;-84
2022/07/04 06:28:03;;;;;;;14.82;10.57;;;16.10;99.90;;;;;;5016572;28;20057;-85
2022/07/04 06:30:29;;;;;;;12.63;10.35;;;16.20;99.90;;;;;;5015549;28;20037;-84
2022/07/04 06:32:56;;;;;;;12.35;10.73;;;16.20;99.90;;;;;;4999042;28;20034;-84
2022/07/04 06:35:45;;;;;;;13.88;9.75;;;16.30;99.90;;;;;;5031544;28;20037;-84
2022/07/04 06:38:17;;;;;;;13.32;8.88;;;16.30;99.90;;;;;;5030636;28;20045;-84
2022/07/04 06:40:43;;;;;;;13.02;7.97;;;16.40;99.90;;;;;;5026296;28;20132;-84
2022/07/04 06:43:08;;;;;;;14.10;9.88;;;16.40;99.90;;;;;;5007586;28;20065;-84
2022/07/04 06:45:34;;;;;;;13.27;9.25;;;16.40;99.90;;;;;;5025658;28;20616;-84
2022/07/04 06:48:01;;;;;;;14.50;8.80;;;16.50;99.90;;;;;;5022667;28;20483;-84
2022/07/04 06:50:27;;;;;;;14.10;8.25;;;16.60;99.90;;;;;;5005213;28;20026;-85
2022/07/04 06:52:53;;;;;;;13.77;7.65;;;16.70;99.90;;;;;;5004416;28;20044;-84
2022/07/04 06:55:18;;;;;;;13.20;8.38;;;16.80;99.90;;;;;;5004938;28;20041;-85
2022/07/04 06:57:44;;;;;;;12.80;8.10;;;16.90;99.90;;;;;;4998723;28;20092;-85
2022/07/04 07:00:10;;;;;;;12.93;6.70;;;17.00;99.90;;;;;;4996637;28;20124;-84
2022/07/04 07:02:37;;;;;;;14.38;7.07;;;17.00;99.90;;;;;;5015381;28;20244;-84
2022/07/04 07:05:04;;;;;;;13.68;7.22;;;17.10;99.90;;;;;;5015890;28;20045;-84
2022/07/04 07:07:30;;;;;;;13.82;6.88;;;17.10;99.90;;;;;;5014856;28;20120;-84
2022/07/04 07:09:55;;;;;;;12.13;7.38;;;17.20;99.90;;;;;;5031992;28;20124;-84
2022/07/04 07:12:22;;;;;;;12.32;6.60;;;17.20;99.90;;;;;;5014137;28;20042;-84
2022/07/04 07:14:48;;;;;;;13.23;7.57;;;17.30;99.90;;;;;;5014702;28;20026;-84
2022/07/04 07:17:15;;;;;;;14.70;7.25;;;17.40;99.90;;;;;;5015101;28;20065;-84
2022/07/04 07:19:42;;;;;;;12.93;6.95;;;17.50;99.90;;;;;;5014507;28;20103;-84
2022/07/04 07:22:08;;;;;;;10.57;6.20;;;17.50;99.90;;;;;;5015505;28;20041;-84
2022/07/04 07:24:34;;;;;;;11.68;6.68;;;17.60;99.90;;;;;;4999041;28;20045;-84
2022/07/04 07:27:00;;;;;;;13.40;7.05;;;17.60;99.90;;;;;;5031617;28;20037;-84
2022/07/04 07:29:25;;;;;;;12.43;6.68;;;17.70;99.90;;;;;;4998869;28;20041;-85
2022/07/04 07:31:51;;;;;;;12.35;6.65;;;17.70;99.90;;;;;;5014230;28;20041;-85
2022/07/04 07:34:17;;;;;;;11.90;6.72;;;17.80;99.90;;;;;;5014528;28;20034;-84
2022/07/04 07:36:42;;;;;;;15.50;7.60;;;17.80;99.90;;;;;;5031631;28;20045;-85
2022/07/04 07:39:08;;;;;;;15.25;7.05;;;17.80;99.90;;;;;;5031603;28;20499;-85
2022/07/04 07:41:34;;;;;;;14.50;6.75;;;18.00;99.90;;;;;;5015322;28;20048;-85
2022/07/04 07:43:59;;;;;;;12.98;6.32;;;18.10;99.90;;;;;;5031399;28;20048;-84
2022/07/04 07:46:25;;;;;;;14.00;6.65;;;18.10;99.90;;;;;;5015095;28;20459;-85
2022/07/04 07:48:50;;;;;;;14.77;6.82;;;18.20;99.90;;;;;;5014836;28;20106;-85
2022/07/04 07:51:16;;;;;;;14.02;6.18;;;18.30;99.90;;;;;;5014100;28;20514;-84
2022/07/04 07:53:42;;;;;;;12.40;6.22;;;18.40;99.90;;;;;;4997876;28;20073;-84
2022/07/04 07:56:08;;;;;;;13.07;6.90;;;18.40;99.90;;;;;;5013481;28;20044;-84
2022/07/04 07:58:34;;;;;;;15.93;6.35;;;18.40;99.90;;;;;;5030794;28;20029;-85
2022/07/04 08:01:01;;;;;;;13.50;6.93;;;18.50;99.90;;;;;;5014298;28;20239;-85
2022/07/04 08:06:12;;;;;;;13.98;5.45;;;18.40;99.90;;;;;;5014920;28;20049;-85
2022/07/04 08:08:38;;;;;;;13.27;5.43;;;18.40;99.90;;;;;;5030867;28;20045;-85
2022/07/04 08:11:04;;;;;;;13.85;5.55;;;18.50;99.90;;;;;;5014353;28;20041;-85
2022/07/04 08:13:30;;;;;;;12.13;6.10;;;18.60;99.90;;;;;;5013224;28;20033;-84
2022/07/04 08:15:56;;;;;;;12.18;5.65;;;18.70;99.90;;;;;;5013769;28;20041;-85
2022/07/04 08:18:22;;;;;;;15.88;6.75;;;18.70;99.90;;;;;;4997433;28;20127;-85
2022/07/04 08:20:49;;;;;;;13.05;5.32;;;18.70;99.90;;;;;;5013771;28;20056;-85
2022/07/04 08:23:15;;;;;;;11.40;5.00;;;18.80;99.90;;;;;;5013376;28;20037;-85
2022/07/04 08:25:40;;;;;;;11.75;4.95;;;18.80;99.90;;;;;;5013768;28;20037;-85
2022/07/04 08:28:06;;;;;;;12.27;5.05;;;18.90;99.90;;;;;;5030704;28;20041;-85
2022/07/04 08:30:32;;;;;;;12.07;4.80;;;18.90;99.90;;;;;;5014255;28;20044;-85
2022/07/04 08:32:58;;;;;;;16.17;5.70;;;18.90;99.90;;;;;;5013298;28;20040;-85
2022/07/04 08:35:23;;;;;;;11.13;4.40;;;18.80;99.90;;;;;;5029892;28;20487;-85
2022/07/04 08:37:53;;;;;;;11.23;5.47;;;18.70;99.90;;;;;;5013633;28;20128;-85
2022/07/04 08:40:23;;;;;;;12.07;5.38;;;18.60;99.90;;;;;;5021162;28;20049;-85
2022/07/04 08:42:49;;;;;;;11.32;5.30;;;18.60;99.90;;;;;;4998068;28;20080;-85
2022/07/04 08:45:26;;;;;;;13.85;5.88;;;18.60;99.90;;;;;;5128871;27;20391;-84
2022/07/04 08:47:56;;;;;;;12.73;5.30;;;18.60;99.90;;;;;;5128605;27;20460;-84
2022/07/04 08:50:29;;;;;;;11.55;4.70;;;18.60;99.90;;;;;;5127185;28;20408;-83
2022/07/04 08:53:02;;;;;;;11.85;5.05;;;18.60;99.90;;;;;;5100553;28;20104;-83
2022/07/04 08:58:25;;;;;;;13.65;5.35;;;18.70;99.90;;;;;;5107033;28;20043;-84
2022/07/04 09:00:56;;;;;;;10.75;4.63;;;19.00;99.90;;;;;;5106519;28;20046;-84
2022/07/04 09:03:22;;;;;;;12.52;4.22;;;19.20;99.90;;;;;;5089713;28;20143;-84
2022/07/04 09:05:49;;;;;;;10.73;4.30;;;19.30;99.90;;;;;;5106746;28;20051;-84
2022/07/04 09:08:14;;;;;;;9.60;4.45;;;19.30;99.90;;;;;;5090225;28;20505;-84
2022/07/04 09:10:40;;;;;;;10.98;4.80;;;19.40;99.90;;;;;;5090084;28;20126;-84
2022/07/04 09:13:07;;;;;;;12.85;4.20;;;19.40;99.90;;;;;;5106381;28;20050;-84
2022/07/04 09:15:33;;;;;;;11.77;4.30;;;19.50;99.90;;;;;;5106173;28;20177;-84
2022/07/04 09:18:03;;;;;;;11.95;4.95;;;19.60;99.90;;;;;;5089073;28;20036;-84
2022/07/04 09:20:31;;;;;;;12.55;4.70;;;19.70;99.90;;;;;;5105354;28;20036;-84
2022/07/04 09:22:57;;;;;;;13.20;4.60;;;19.70;99.90;;;;;;5106752;28;20035;-84
2022/07/04 09:25:24;;;;;;;12.25;3.88;;;19.80;99.90;;;;;;5089795;28;21284;-84
2022/07/04 09:27:55;;;;;;;11.00;4.03;;;19.80;99.90;;;;;;5107204;28;20512;-84
2022/07/04 09:30:26;;;;;;;14.15;3.88;;;19.80;99.90;;;;;;5106701;28;20502;-84
2022/07/04 09:32:59;;;;;;;10.35;3.08;;;19.90;99.90;;;;;;5102957;28;20082;-84
2022/07/04 09:35:26;;;;;;;10.88;2.50;;;19.90;99.90;;;;;;5088960;28;20039;-83
2022/07/04 09:37:54;;;;;;;10.30;3.30;;;20.00;99.90;;;;;;5088917;28;20032;-84
2022/07/04 09:40:24;;;;;;;9.77;3.20;;;20.10;99.90;;;;;;5107851;28;20040;-84
2022/07/04 09:42:51;;;;;;;9.85;3.00;;;20.10;99.90;;;;;;5106130;28;20035;-84
2022/07/04 09:45:17;;;;;;;10.30;3.30;;;20.00;99.90;;;;;;5105950;28;20040;-84
2022/07/04 09:47:45;;;;;;;7.65;2.35;;;20.00;99.90;;;;;;5106608;28;20036;-84
2022/07/04 09:50:11;;;;;;;7.60;1.95;;;19.90;99.90;;;;;;5106015;28;20134;-83
2022/07/04 09:52:54;;;;;;;8.10;2.22;;;19.90;99.90;;;;;;5089374;28;20161;-84
2022/07/04 09:55:25;;;;;;;9.45;2.40;;;19.90;99.90;;;;;;5099174;28;20039;-83
2022/07/04 09:57:52;;;;;;;8.82;2.40;;;19.80;99.90;;;;;;5092075;28;20389;-84
2022/07/04 10:00:19;;;;;;;8.75;2.42;;;19.90;99.90;;;;;;5091835;28;20032;-84
2022/07/04 10:02:45;;;;;;;6.68;1.60;;;20.00;99.90;;;;;;5092212;28;20071;-84
2022/07/04 10:05:11;;;;;;;8.95;1.90;;;20.00;99.90;;;;;;5075770;28;20064;-84
2022/07/04 10:07:43;;;;;;;9.00;2.00;;;20.10;99.90;;;;;;5092726;28;20043;-84
2022/07/04 10:10:26;;;;;;;;;;;20.30;99.90;;;;;;5076210;28;20036;-84
2022/07/04 10:12:54;;;;;;;6.60;1.90;;;20.40;99.90;;;;;;5074741;28;20298;-85
2022/07/04 10:15:21;;;;;;;7.05;2.13;;;20.60;99.90;;;;;;5091547;28;20501;-84
2022/07/04 10:17:47;;;;;;;8.20;1.83;;;20.60;99.90;;;;;;5091247;28;20076;-85
2022/07/04 10:20:13;;;;;;;6.80;2.00;;;20.50;99.90;;;;;;5074807;28;20043;-84
2022/07/04 10:22:39;;;;;;;4.80;1.63;;;20.40;99.90;;;;;;5075544;28;20401;-84
2022/07/04 10:25:07;;;;;;;7.38;1.95;;;20.40;99.90;;;;;;5074950;28;20032;-84
2022/07/04 10:27:32;;;;;;;6.28;1.60;;;20.60;99.90;;;;;;5091952;28;20493;-84
2022/07/04 10:29:59;;;;;;;9.63;1.95;;;20.70;99.90;;;;;;5093343;28;20075;-84
2022/07/04 10:32:26;;;;;;;8.45;2.05;;;20.80;99.90;;;;;;5091088;28;20040;-84
2022/07/04 10:34:52;;;;;;;7.38;1.40;;;20.80;99.90;;;;;;5091301;28;20044;-84
2022/07/04 10:37:18;;;;;;;5.72;1.60;;;20.80;99.90;;;;;;5088695;28;20117;-84
2022/07/04 10:39:43;;;;;;;5.90;1.40;;;20.80;99.90;;;;;;5071018;28;20556;-84
2022/07/04 10:42:23;;;;;;;7.25;1.67;;;20.80;99.90;;;;;;5076432;28;20072;-84
2022/07/04 10:44:49;;;;;;;5.53;1.42;;;20.90;99.90;;;;;;5074679;28;20058;-85
2022/07/04 10:47:27;;;;;;;6.80;1.55;;;21.10;99.90;;;;;;5091946;28;20047;-84
2022/07/04 10:49:53;;;;;;;7.18;1.75;;;21.10;99.90;;;;;;5073693;28;20032;-84
2022/07/04 10:52:18;;;;;;;6.35;1.70;;;21.10;99.90;;;;;;5072418;28;20089;-85
2022/07/04 10:54:45;;;;;;;6.85;2.00;;;21.20;99.90;;;;;;5083081;28;20051;-85
2022/07/04 10:57:19;;;;;;;6.80;1.70;;;21.40;99.90;;;;;;5064055;28;20040;-84
2022/07/04 10:59:55;;;;;;;7.65;1.63;;;21.50;99.90;;;;;;5064422;28;20071;-84
2022/07/04 11:02:24;;;;;;;5.55;1.80;;;21.50;97.70;;;;;;5082542;28;20055;-85
2022/07/04 11:04:51;;;;;;;5.90;1.70;;;21.60;99.90;;;;;;5092916;28;20044;-85
2022/07/04 11:07:22;;;;;;;8.05;1.70;;;21.60;99.90;;;;;;5090354;28;20036;-85
2022/07/04 11:10:21;;;;;;;5.15;1.58;;;21.70;99.90;;;;;;5074275;28;20067;-85
2022/07/04 11:12:53;;;;;;;7.05;2.10;;;21.70;99.90;;;;;;5067593;28;20039;-84
2022/07/04 11:15:40;;;;;;;5.40;1.43;;;21.90;99.80;;;;;;5088107;28;20047;-85
2022/07/04 11:18:12;;;;;;;4.28;1.35;;;21.90;97.50;;;;;;5072756;28;20505;-84
2022/07/04 11:20:43;;;;;;;4.22;1.33;;;21.90;95.40;;;;;;5090366;28;20040;-85
2022/07/04 11:23:19;;;;;;;6.95;1.60;;;21.80;97.80;;;;;;5090794;28;20048;-85
2022/07/04 11:25:48;;;;;;;4.93;1.38;;;21.70;94.60;;;;;;5073641;28;20040;-85
2022/07/04 11:28:34;;;;;;;6.90;1.67;;;21.60;97.40;;;;;;5072709;28;20036;-85
2022/07/04 11:31:00;;;;;;;5.32;1.42;;;21.50;97.10;;;;;;5073289;28;20039;-84
2022/07/04 11:33:29;;;;;;;6.30;1.75;;;21.60;94.70;;;;;;5073944;28;20036;-85
2022/07/04 11:36:03;;;;;;;6.00;1.80;;;21.60;94.50;;;;;;5072305;28;20125;-84
2022/07/04 11:38:53;;;;;;;5.53;1.38;;;21.70;96.70;;;;;;5090575;28;20088;-85
2022/07/04 11:47:06;;;;;;;7.47;1.67;;;21.80;97.30;;;;;;5090353;28;20036;-84
2022/07/04 11:49:32;;;;;;;5.35;1.50;;;21.80;94.00;;;;;;5089804;28;20431;-85
2022/07/04 11:51:58;;;;;;;6.25;1.60;;;21.80;97.80;;;;;;5090631;28;20043;-85
2022/07/04 11:54:24;;;;;;;5.38;1.52;;;21.80;93.90;;;;;;5089342;28;20044;-84
2022/07/04 11:56:49;;;;;;;5.13;1.58;;;21.80;95.30;;;;;;5089938;28;20050;-85
2022/07/04 11:59:16;;;;;;;6.07;1.58;;;21.80;94.50;;;;;;5072311;28;20093;-85
2022/07/04 12:01:43;;;;;;;3.40;1.20;;;21.70;94.50;;;;;;5089809;28;20040;-85
2022/07/04 12:04:16;;;;;;;9.00;2.97;;;21.60;93.20;;;;;;5091732;28;20046;-84
2022/07/04 12:06:42;;;;;;;4.75;1.52;;;21.80;98.70;;;;;;5073329;28;20035;-85
2022/07/04 12:09:08;;;;;;;6.65;1.60;;;21.90;96.00;;;;;;5089767;28;20086;-84
2022/07/04 12:11:54;;;;;;;5.70;1.48;;;22.00;92.80;;;;;;5090624;28;20060;-84
2022/07/04 12:14:19;;;;;;;5.57;1.60;;;22.10;93.10;;;;;;5072574;28;20393;-85
2022/07/04 12:16:47;;;;;;;6.88;1.95;;;22.20;94.20;;;;;;5089454;28;20501;-85
2022/07/04 12:19:13;;;;;;;6.63;1.60;;;22.30;95.30;;;;;;5072037;28;20036;-84
2022/07/04 12:21:39;;;;;;;6.45;1.88;;;22.30;92.20;;;;;;5072633;28;20046;-84
2022/07/04 12:24:05;;;;;;;6.38;1.50;;;22.10;92.10;;;;;;5073103;28;20260;-84
2022/07/04 12:26:31;;;;;;;4.32;1.40;;;22.10;95.80;;;;;;5091086;28;20028;-84
2022/07/04 12:28:57;;;;;;;5.40;1.65;;;22.30;92.90;;;;;;5089882;28;20036;-85
2022/07/04 12:31:42;;;;;;;4.25;1.60;;;22.30;88.60;;;;;;5090476;28;20036;-84
2022/07/04 12:34:15;;;;;;;6.40;1.60;;;22.40;91.40;;;;;;5089608;28;20036;-85
2022/07/04 12:36:58;;;;;;;5.10;1.60;;;22.50;93.40;;;;;;5089520;28;20062;-85
2022/07/04 12:39:34;;;;;;;5.30;1.50;;;22.50;92.40;;;;;;5089295;28;20043;-85
2022/07/04 12:42:08;;;;;;;4.07;1.30;;;22.60;92.20;;;;;;5089295;28;20083;-85
2022/07/04 12:44:34;;;;;;;6.70;1.73;;;22.70;94.30;;;;;;5077990;28;20468;-82
2022/07/04 12:47:00;;;;;;;5.38;1.42;;;22.60;85.00;;;;;;5094579;28;20035;-84
2022/07/04 12:49:26;;;;;;;6.53;1.40;;;22.60;92.30;;;;;;5089368;28;20036;-85
2022/07/04 12:52:02;;;;;;;4.25;1.50;;;22.60;92.90;;;;;;5091331;28;20040;-85
2022/07/04 12:54:28;;;;;;;6.28;1.50;;;22.60;90.50;;;;;;5091103;28;20051;-85
2022/07/04 12:57:14;;;;;;;6.07;1.65;;;22.50;90.70;;;;;;5086711;28;20040;-85